createdAt,value
2022-09-06T00:02:20.515Z,60.32
2022-09-06T00:04:49.180Z,60.14
2022-09-06T00:07:17.021Z,60.05
2022-09-06T00:09:46.156Z,60.08
2022-09-06T00:12:14.183Z,59.92
2022-09-06T00:14:42.155Z,59.99
2022-09-06T00:17:10.286Z,59.97
2022-09-06T00:19:38.054Z,60.16
2022-09-06T00:22:05.965Z,59.99
2022-09-06T00:24:34.006Z,60.11
2022-09-06T00:27:03.218Z,60.13
2022-09-06T00:29:31.341Z,60.20
2022-09-06T00:31:59.375Z,60.14
2022-09-06T00:34:27.384Z,59.74
2022-09-06T00:36:55.660Z,59.85
2022-09-06T00:39:23.545Z,59.79
2022-09-06T00:41:51.794Z,59.89
2022-09-06T00:44:20.968Z,59.97
2022-09-06T00:46:51.979Z,60.17
2022-09-06T00:49:24.368Z,59.78
2022-09-06T00:51:54.559Z,59.89
2022-09-06T00:54:22.712Z,59.89
2022-09-06T00:56:51.595Z,59.80
2022-09-06T00:59:21.107Z,60.15
2022-09-06T01:01:49.188Z,60.23
2022-09-06T01:04:17.382Z,60.21
2022-09-06T01:06:58.609Z,60.37
2022-09-06T01:09:40.967Z,60.37
2022-09-06T01:12:22.497Z,60.21
2022-09-06T01:15:05.944Z,60.20
2022-09-06T01:17:45.664Z,60.37
2022-09-06T01:20:32.354Z,60.45
2022-09-06T01:23:28.622Z,60.40
2022-09-06T01:26:04.773Z,60.03
2022-09-06T01:28:35.082Z,59.92
2022-09-06T01:31:17.712Z,60.22
2022-09-06T01:33:52.949Z,60.14
2022-09-06T01:36:25.300Z,60.45
2022-09-06T01:38:53.384Z,60.82
2022-09-06T01:41:21.249Z,60.34
2022-09-06T01:43:52.771Z,60.66
2022-09-06T01:46:32.446Z,60.81
2022-09-06T01:49:25.130Z,60.84
2022-09-06T01:52:03.511Z,60.75
2022-09-06T01:54:45.852Z,60.73
2022-09-06T01:57:26.883Z,61.12
2022-09-06T02:00:06.896Z,60.82
2022-09-06T02:02:48.654Z,61.01
2022-09-06T02:05:23.867Z,60.90
2022-09-06T02:07:57.200Z,61.04
2022-09-06T02:10:29.508Z,61.18
2022-09-06T02:13:01.215Z,61.04
2022-09-06T02:15:33.608Z,61.13
2022-09-06T02:18:06.831Z,61.31
2022-09-06T02:20:38.872Z,61.18
2022-09-06T02:23:09.685Z,61.28
2022-09-06T02:25:40.414Z,61.22
2022-09-06T02:28:10.192Z,61.47
2022-09-06T02:30:44.088Z,61.49
2022-09-06T02:33:17.575Z,61.40
2022-09-06T02:35:47.219Z,61.49
2022-09-06T02:38:15.605Z,61.53
2022-09-06T02:40:44.545Z,61.52
2022-09-06T02:43:12.713Z,61.49
2022-09-06T02:45:42.909Z,61.58
2022-09-06T02:48:10.720Z,61.67
2022-09-06T02:50:38.516Z,61.68
2022-09-06T02:53:09.417Z,61.82
2022-09-06T02:55:38.076Z,61.74
2022-09-06T02:58:07.612Z,61.86
2022-09-06T03:00:35.728Z,61.80
2022-09-06T03:03:05.470Z,61.92
2022-09-06T03:05:33.352Z,62.03
2022-09-06T03:08:01.517Z,62.01
2022-09-06T03:10:29.297Z,61.91
2022-09-06T03:12:57.179Z,62.03
2022-09-06T03:15:25.241Z,61.87
2022-09-06T03:17:53.006Z,62.21
2022-09-06T03:20:22.160Z,62.33
2022-09-06T03:22:50.254Z,62.19
2022-09-06T03:25:18.097Z,62.34
2022-09-06T03:27:46.222Z,62.37
2022-09-06T03:30:15.031Z,62.46
2022-09-06T03:32:42.787Z,62.36
2022-09-06T03:35:11.861Z,62.59
2022-09-06T03:37:41.089Z,62.45
2022-09-06T03:40:10.389Z,62.42
2022-09-06T03:42:39.640Z,62.44
2022-09-06T03:45:08.591Z,62.63
2022-09-06T03:47:36.503Z,62.55
2022-09-06T03:50:04.836Z,62.59
2022-09-06T03:52:33.044Z,62.59
2022-09-06T03:55:03.209Z,62.70
2022-09-06T03:57:30.973Z,62.86
2022-09-06T03:59:58.727Z,62.57
2022-09-06T04:02:26.754Z,62.64
2022-09-06T04:04:55.649Z,62.87
2022-09-06T04:07:24.043Z,62.55
2022-09-06T04:09:51.807Z,62.71
2022-09-06T04:12:20.935Z,62.84
2022-09-06T04:14:49.013Z,62.77
2022-09-06T04:17:16.829Z,62.71
2022-09-06T04:19:44.894Z,62.99
2022-09-06T04:22:12.737Z,62.78
2022-09-06T04:24:40.543Z,62.73
2022-09-06T04:27:08.542Z,62.80
2022-09-06T04:29:37.715Z,63.12
2022-09-06T04:32:05.594Z,62.98
2022-09-06T04:34:34.428Z,63.02
2022-09-06T04:37:02.243Z,63.19
2022-09-06T04:39:30.096Z,62.94
2022-09-06T04:41:58.140Z,62.75
2022-09-06T04:44:25.941Z,63.27
2022-09-06T04:47:09.362Z,62.95
2022-09-06T04:49:37.520Z,63.41
2022-09-06T04:52:05.831Z,62.94
2022-09-06T04:54:33.629Z,63.00
2022-09-06T04:57:01.463Z,62.86
2022-09-06T04:59:29.635Z,63.19
2022-09-06T05:01:58.791Z,63.15
2022-09-06T05:04:26.647Z,62.88
2022-09-06T05:07:02.151Z,62.80
2022-09-06T05:09:30.757Z,63.07
2022-09-06T05:11:58.567Z,62.95
2022-09-06T05:14:26.737Z,63.00
2022-09-06T05:16:55.404Z,63.13
2022-09-06T05:19:24.886Z,62.88
2022-09-06T05:21:53.209Z,62.90
2022-09-06T05:24:21.044Z,63.13
2022-09-06T05:26:49.153Z,62.71
2022-09-06T05:29:16.971Z,63.10
2022-09-06T05:31:45.146Z,62.75
2022-09-06T05:34:13.507Z,62.82
2022-09-06T05:36:42.753Z,63.03
2022-09-06T05:39:10.765Z,62.78
2022-09-06T05:41:38.607Z,62.77
2022-09-06T05:44:06.725Z,62.81
2022-09-06T05:46:42.280Z,63.19
2022-09-06T05:49:10.734Z,63.00
2022-09-06T05:51:38.591Z,62.95
2022-09-06T05:54:08.835Z,63.07
2022-09-06T05:56:36.774Z,63.07
2022-09-06T05:59:05.666Z,63.00
2022-09-06T06:01:33.586Z,62.85
2022-09-06T06:04:03.509Z,62.78
2022-09-06T06:06:32.864Z,62.62
2022-09-06T06:09:01.659Z,62.53
2022-09-06T06:11:32.010Z,62.45
2022-09-06T06:14:00.000Z,62.33
2022-09-06T06:16:28.166Z,62.17
2022-09-06T06:18:56.111Z,62.19
2022-09-06T06:21:25.966Z,62.24
2022-09-06T06:23:55.711Z,61.92
2022-09-06T06:26:24.363Z,61.90
2022-09-06T06:28:54.026Z,62.04
2022-09-06T06:31:25.235Z,62.03
2022-09-06T06:33:53.073Z,61.94
2022-09-06T06:36:22.772Z,61.97
2022-09-06T06:38:52.581Z,62.00
2022-09-06T06:41:23.925Z,61.95
2022-09-06T06:43:54.700Z,61.82
2022-09-06T06:46:24.341Z,61.88
2022-09-06T06:48:55.329Z,61.92
2022-09-06T06:51:26.030Z,61.93
2022-09-06T06:53:54.139Z,62.09
2022-09-06T06:56:24.263Z,62.02
2022-09-06T06:58:56.555Z,61.58
2022-09-06T07:01:26.255Z,62.09
2022-09-06T07:03:54.572Z,61.89
2022-09-06T07:09:11.497Z,61.40
2022-09-06T07:11:39.683Z,61.22
2022-09-06T07:14:08.950Z,60.96
2022-09-06T07:16:36.869Z,61.57
2022-09-06T07:19:05.228Z,61.38
2022-09-06T07:24:08.695Z,60.61
2022-09-06T07:26:39.403Z,60.58
2022-09-06T07:29:09.864Z,60.46
2022-09-06T07:34:28.234Z,59.27
2022-09-06T07:36:56.905Z,59.17
2022-09-06T07:39:25.362Z,58.75
2022-09-06T07:41:53.800Z,58.74
2022-09-06T07:44:23.475Z,59.15
2022-09-06T07:46:52.678Z,58.30
2022-09-06T07:49:21.233Z,58.10
2022-09-06T07:51:49.714Z,58.18
2022-09-06T07:54:33.057Z,58.49
2022-09-06T07:57:01.282Z,57.72
2022-09-06T07:59:30.781Z,57.32
2022-09-06T08:01:59.149Z,57.44
2022-09-06T08:04:27.213Z,56.82
2022-09-06T08:09:45.843Z,56.42
2022-09-06T08:12:14.136Z,57.08
2022-09-06T08:14:43.882Z,55.89
2022-09-06T08:17:12.086Z,55.94
2022-09-06T08:19:40.248Z,56.42
2022-09-06T08:22:08.722Z,55.84
2022-09-06T08:24:37.027Z,55.89
2022-09-06T08:27:07.875Z,56.13
2022-09-06T08:29:36.117Z,55.92
2022-09-06T08:32:05.820Z,55.74
2022-09-06T08:34:34.034Z,55.30
2022-09-06T08:37:02.162Z,54.94
2022-09-06T08:39:30.172Z,54.40
2022-09-06T08:42:03.812Z,54.38
2022-09-06T08:47:27.084Z,54.42
2022-09-06T08:50:02.312Z,54.16
2022-09-06T08:53:06.577Z,54.28
2022-09-06T08:55:41.326Z,54.11
2022-09-06T08:58:34.973Z,53.81
2022-09-06T09:01:05.910Z,53.33
2022-09-06T09:03:38.111Z,52.78
2022-09-06T09:06:10.131Z,53.15
2022-09-06T09:08:48.289Z,52.83
2022-09-06T09:11:19.818Z,53.79
2022-09-06T09:13:55.862Z,52.90
2022-09-06T09:16:25.159Z,52.49
2022-09-06T09:18:58.292Z,52.55
2022-09-06T09:21:32.351Z,52.02
2022-09-06T09:24:04.520Z,52.14
2022-09-06T09:26:37.565Z,52.60
2022-09-06T09:29:08.083Z,52.31
2022-09-06T09:31:38.460Z,51.58
2022-09-06T09:34:13.191Z,51.12
2022-09-06T09:39:37.224Z,51.30
2022-09-06T09:42:05.933Z,50.77
2022-09-06T09:44:34.713Z,50.63
2022-09-06T09:47:23.276Z,50.75
2022-09-06T09:49:52.888Z,49.49
2022-09-06T09:52:27.210Z,50.11
2022-09-06T09:54:58.276Z,50.40
2022-09-06T09:57:26.365Z,49.58
2022-09-06T09:59:57.504Z,48.99
2022-09-06T10:02:28.523Z,50.54
2022-09-06T10:05:03.845Z,49.88
2022-09-06T10:07:33.778Z,48.75
2022-09-06T10:10:05.524Z,48.93
2022-09-06T10:12:35.381Z,47.92
2022-09-06T10:15:06.943Z,47.83
2022-09-06T10:17:37.267Z,48.15
2022-09-06T10:20:10.147Z,48.67
2022-09-06T10:22:52.725Z,47.26
2022-09-06T10:25:49.117Z,47.94
2022-09-06T10:28:34.603Z,47.64
2022-09-06T10:31:17.134Z,47.06
2022-09-06T10:33:58.940Z,46.01
2022-09-06T10:36:34.103Z,46.03
2022-09-06T10:39:04.330Z,46.42
2022-09-06T10:42:02.306Z,46.31
2022-09-06T10:44:46.842Z,46.17
2022-09-06T10:47:16.524Z,46.99
2022-09-06T10:49:47.417Z,44.95
2022-09-06T10:52:20.974Z,45.04
2022-09-06T10:54:49.463Z,45.99
2022-09-06T11:00:13.565Z,46.53
2022-09-06T11:02:47.259Z,45.15
2022-09-06T11:11:09.080Z,44.35
2022-09-06T11:13:36.864Z,44.43
2022-09-06T11:16:09.696Z,45.02
2022-09-06T11:18:44.846Z,43.85
2022-09-06T11:21:31.546Z,45.02
2022-09-06T11:24:12.211Z,43.49
2022-09-06T11:26:45.571Z,43.73
2022-09-06T11:29:20.959Z,43.62
2022-09-06T11:34:54.326Z,43.43
2022-09-06T11:37:27.341Z,42.99
2022-09-06T11:43:12.161Z,42.89
2022-09-06T11:45:42.607Z,41.53
2022-09-06T11:48:35.152Z,42.86
2022-09-06T11:51:10.680Z,42.39
2022-09-06T11:54:10.213Z,41.85
2022-09-06T11:56:44.338Z,41.76
2022-09-06T11:59:28.729Z,42.25
2022-09-06T12:02:03.880Z,41.68
2022-09-06T12:04:50.299Z,42.57
2022-09-06T12:07:18.133Z,41.44
2022-09-06T12:09:46.441Z,41.71
2022-09-06T12:12:42.438Z,42.09
2022-09-06T12:15:26.123Z,41.43
2022-09-06T12:17:54.176Z,39.99
2022-09-06T12:21:02.235Z,41.13
2022-09-06T12:23:44.361Z,41.06
2022-09-06T12:26:13.379Z,39.91
2022-09-06T12:28:49.761Z,38.90
2022-09-06T12:31:26.437Z,40.08
2022-09-06T12:33:56.014Z,38.69
2022-09-06T12:36:29.752Z,39.25
2022-09-06T12:39:00.557Z,38.63
2022-09-06T12:41:30.786Z,38.29
2022-09-06T12:44:03.189Z,38.02
2022-09-06T12:46:32.372Z,37.60
2022-09-06T12:49:01.883Z,37.42
2022-09-06T12:51:29.754Z,37.59
2022-09-06T12:54:00.130Z,37.12
2022-09-06T12:56:30.220Z,38.04
2022-09-06T12:59:20.122Z,38.01
2022-09-06T13:01:54.125Z,37.15
2022-09-06T13:04:28.865Z,37.47
2022-09-06T13:06:58.485Z,36.99
2022-09-06T13:09:29.983Z,37.07
2022-09-06T13:12:05.505Z,37.65
2022-09-06T13:14:36.277Z,37.60
2022-09-06T13:17:04.068Z,37.91
2022-09-06T13:19:34.989Z,37.05
2022-09-06T13:22:05.437Z,37.03
2022-09-06T13:24:47.143Z,37.72
2022-09-06T13:27:25.998Z,36.08
2022-09-06T13:30:00.204Z,36.17
2022-09-06T13:32:28.836Z,35.92
2022-09-06T13:35:00.117Z,36.48
2022-09-06T13:37:31.375Z,35.65
2022-09-06T13:40:00.289Z,36.08
2022-09-06T13:42:30.620Z,36.34
2022-09-06T13:45:02.327Z,36.67
2022-09-06T13:47:31.207Z,36.25
2022-09-06T13:49:59.105Z,35.79
2022-09-06T13:52:27.226Z,36.72
2022-09-06T13:54:55.184Z,35.97
2022-09-06T13:57:24.669Z,36.28
2022-09-06T13:59:52.761Z,35.62
2022-09-06T14:02:22.054Z,36.52
2022-09-06T14:04:50.185Z,37.57
2022-09-06T14:07:18.352Z,37.09
2022-09-06T14:09:47.573Z,36.54
2022-09-06T14:12:15.477Z,36.68
2022-09-06T14:14:44.611Z,36.64
2022-09-06T14:17:12.636Z,36.48
2022-09-06T14:19:42.794Z,35.93
2022-09-06T14:22:10.906Z,36.11
2022-09-06T14:24:39.258Z,37.66
2022-09-06T14:27:08.679Z,37.13
2022-09-06T14:29:37.141Z,38.56
2022-09-06T14:32:05.232Z,37.72
2022-09-06T14:34:33.092Z,38.34
2022-09-06T14:37:02.441Z,39.69
2022-09-06T14:39:30.708Z,39.87
2022-09-06T14:41:58.690Z,41.05
2022-09-06T14:44:27.135Z,42.10
2022-09-06T14:46:55.447Z,42.97
2022-09-06T14:49:23.540Z,43.57
2022-09-06T14:51:53.642Z,44.17
2022-09-06T14:54:27.277Z,44.60
2022-09-06T14:56:57.230Z,44.15
2022-09-06T14:59:25.220Z,44.66
2022-09-06T15:01:53.200Z,45.14
2022-09-06T15:04:21.833Z,45.52
2022-09-06T15:06:49.835Z,45.84
2022-09-06T15:09:19.425Z,46.65
2022-09-06T15:11:50.689Z,47.03
2022-09-06T15:14:21.109Z,47.73
2022-09-06T15:16:54.919Z,47.63
2022-09-06T15:19:25.063Z,48.66
2022-09-06T15:21:53.107Z,48.39
2022-09-06T15:24:21.918Z,48.31
2022-09-06T15:26:51.532Z,48.68
2022-09-06T15:29:20.446Z,48.35
2022-09-06T15:31:50.721Z,48.75
2022-09-06T15:34:19.912Z,49.60
2022-09-06T15:36:48.044Z,49.68
2022-09-06T15:39:16.508Z,49.99
2022-09-06T15:41:44.551Z,50.31
2022-09-06T15:44:15.906Z,50.50
2022-09-06T15:46:47.477Z,50.17
2022-09-06T15:49:17.394Z,50.15
2022-09-06T15:51:46.183Z,50.76
2022-09-06T15:54:16.032Z,50.62
2022-09-06T15:56:43.258Z,51.04
2022-09-06T15:59:11.858Z,51.59
2022-09-06T16:01:41.499Z,52.12
2022-09-06T16:04:09.310Z,51.91
2022-09-06T16:06:42.209Z,51.78
2022-09-06T16:09:11.423Z,51.63
2022-09-06T16:11:39.213Z,50.71
2022-09-06T16:14:08.495Z,51.18
2022-09-06T16:16:36.729Z,51.79
2022-09-06T16:19:05.943Z,52.11
2022-09-06T16:21:36.126Z,51.92
2022-09-06T16:24:05.730Z,52.69
2022-09-06T16:26:35.167Z,52.69
2022-09-06T16:29:04.650Z,52.94
2022-09-06T16:31:39.112Z,52.98
2022-09-06T16:34:09.160Z,52.36
2022-09-06T16:36:37.229Z,52.07
2022-09-06T16:39:05.773Z,50.98
2022-09-06T16:41:39.003Z,50.48
2022-09-06T16:44:06.943Z,50.23
2022-09-06T16:46:34.803Z,50.57
2022-09-06T16:49:04.477Z,50.95
2022-09-06T16:51:33.807Z,51.48
2022-09-06T16:54:02.692Z,50.94
2022-09-06T16:56:34.737Z,51.42
2022-09-06T16:59:05.332Z,51.65
2022-09-06T17:01:34.350Z,51.96
2022-09-06T17:04:03.110Z,52.64
2022-09-06T17:06:32.544Z,53.31
2022-09-06T17:09:01.740Z,52.48
2022-09-06T17:11:30.582Z,52.47
2022-09-06T17:13:58.809Z,52.00
2022-09-06T17:16:46.465Z,52.55
2022-09-06T17:19:14.936Z,52.98
2022-09-06T17:21:43.630Z,53.09
2022-09-06T17:24:12.825Z,53.59
2022-09-06T17:26:41.367Z,53.44
2022-09-06T17:29:09.580Z,53.64
2022-09-06T17:31:38.367Z,53.78
2022-09-06T17:34:07.698Z,54.12
2022-09-06T17:36:36.456Z,53.96
2022-09-06T17:39:06.310Z,54.39
2022-09-06T17:41:37.823Z,54.44
2022-09-06T17:44:07.011Z,54.29
2022-09-06T17:46:36.309Z,54.57
2022-09-06T17:49:05.931Z,54.09
2022-09-06T17:51:34.513Z,54.44
2022-09-06T17:54:02.392Z,54.77
2022-09-06T17:56:30.601Z,54.97
2022-09-06T17:59:01.804Z,54.30
2022-09-06T18:01:32.067Z,54.87
2022-09-06T18:04:00.993Z,54.78
2022-09-06T18:06:30.993Z,54.57
2022-09-06T18:09:03.408Z,54.62
2022-09-06T18:11:33.387Z,54.77
2022-09-06T18:14:05.129Z,54.61
2022-09-06T18:16:34.999Z,54.69
2022-09-06T18:19:04.555Z,55.11
2022-09-06T18:21:36.213Z,54.84
2022-09-06T18:24:05.018Z,55.21
2022-09-06T18:26:32.904Z,54.74
2022-09-06T18:29:02.339Z,54.82
2022-09-06T18:31:30.269Z,55.05
2022-09-06T18:33:58.925Z,55.10
2022-09-06T18:36:31.781Z,55.57
2022-09-06T18:39:02.804Z,55.54
2022-09-06T18:41:47.956Z,55.16
2022-09-06T18:44:17.896Z,54.63
2022-09-06T18:46:45.784Z,54.56
2022-09-06T18:49:15.021Z,54.62
2022-09-06T18:51:44.607Z,54.84
2022-09-06T18:54:12.641Z,55.06
2022-09-06T18:56:40.536Z,54.90
2022-09-06T18:59:08.583Z,54.97
2022-09-06T19:01:37.996Z,54.96
2022-09-06T19:04:07.120Z,55.41
2022-09-06T19:06:36.325Z,55.39
2022-09-06T19:09:07.044Z,55.70
2022-09-06T19:11:35.314Z,55.57
2022-09-06T19:14:03.585Z,55.38
2022-09-06T19:16:32.619Z,55.48
2022-09-06T19:19:04.969Z,55.38
2022-09-06T19:21:36.729Z,55.26
2022-09-06T19:24:10.198Z,54.84
2022-09-06T19:26:40.265Z,54.84
2022-09-06T19:29:12.149Z,55.18
2022-09-06T19:31:40.678Z,55.02
2022-09-06T19:34:09.905Z,55.39
2022-09-06T19:36:37.752Z,55.48
2022-09-06T19:39:07.965Z,55.24
2022-09-06T19:41:39.014Z,55.39
2022-09-06T19:44:08.625Z,55.50
2022-09-06T19:46:37.179Z,55.51
2022-09-06T19:49:10.252Z,55.23
2022-09-06T19:51:39.591Z,55.43
2022-09-06T19:54:07.574Z,55.87
2022-09-06T19:56:37.600Z,55.81
2022-09-06T19:59:06.920Z,55.72
2022-09-06T20:01:36.995Z,55.60
2022-09-06T20:04:07.275Z,55.57
2022-09-06T20:06:37.220Z,55.28
2022-09-06T20:09:07.479Z,55.07
2022-09-06T20:11:37.793Z,55.35
2022-09-06T20:14:05.860Z,55.78
2022-09-06T20:16:36.143Z,56.02
2022-09-06T20:19:07.302Z,55.94
2022-09-06T20:21:36.876Z,55.96
2022-09-06T20:24:04.807Z,56.28
2022-09-06T20:26:32.635Z,56.10
2022-09-06T20:29:02.409Z,56.40
2022-09-06T20:31:31.853Z,55.85
2022-09-06T20:34:01.394Z,56.04
2022-09-06T20:36:30.088Z,56.03
2022-09-06T20:38:59.305Z,55.97
2022-09-06T20:41:28.779Z,55.64
2022-09-06T20:43:57.919Z,55.81
2022-09-06T20:46:27.374Z,55.95
2022-09-06T20:48:57.705Z,55.76
2022-09-06T20:51:25.966Z,56.01
2022-09-06T20:53:55.994Z,56.02
2022-09-06T20:56:26.856Z,56.04
2022-09-06T20:58:56.935Z,56.51
2022-09-06T21:01:26.475Z,56.59
2022-09-06T21:03:56.403Z,55.64
2022-09-06T21:06:26.088Z,55.32
2022-09-06T21:08:53.939Z,54.31
2022-09-06T21:11:22.095Z,54.32
2022-09-06T21:13:52.767Z,54.37
2022-09-06T21:16:24.679Z,54.58
2022-09-06T21:18:53.521Z,54.02
2022-09-06T21:21:22.204Z,54.86
2022-09-06T21:23:50.590Z,54.91
2022-09-06T21:26:19.118Z,55.45
2022-09-06T21:28:48.071Z,55.30
2022-09-06T21:31:19.285Z,56.24
2022-09-06T21:33:48.308Z,56.08
2022-09-06T21:36:18.850Z,56.88
2022-09-06T21:38:48.324Z,57.25
2022-09-06T21:41:18.412Z,57.28
2022-09-06T21:43:46.925Z,57.09
2022-09-06T21:46:17.913Z,57.78
2022-09-06T21:48:48.361Z,57.68
2022-09-06T21:51:18.562Z,57.26
2022-09-06T21:53:48.302Z,57.07
2022-09-06T21:56:18.978Z,57.29
2022-09-06T21:58:46.959Z,57.60
2022-09-06T22:01:15.094Z,58.08
2022-09-06T22:03:44.798Z,57.72
2022-09-06T22:06:14.969Z,58.02
2022-09-06T22:08:44.224Z,58.14
2022-09-06T22:11:14.187Z,58.41
2022-09-06T22:13:42.272Z,58.67
2022-09-06T22:16:11.784Z,59.26
2022-09-06T22:18:39.840Z,58.62
2022-09-06T22:21:10.845Z,58.75
2022-09-06T22:23:39.921Z,58.88
2022-09-06T22:26:09.737Z,58.80
2022-09-06T22:28:39.473Z,58.67
2022-09-06T22:31:08.113Z,58.65
2022-09-06T22:33:37.027Z,58.55
2022-09-06T22:36:06.687Z,58.71
2022-09-06T22:38:37.670Z,58.31
2022-09-06T22:41:06.618Z,58.39
2022-09-06T22:43:34.542Z,58.59
2022-09-06T22:46:07.034Z,58.10
2022-09-06T22:48:35.789Z,58.25
2022-09-06T22:51:06.082Z,58.09
2022-09-06T22:53:35.573Z,58.00
2022-09-06T22:56:04.062Z,58.22
2022-09-06T22:58:32.146Z,58.26
2022-09-06T23:01:07.785Z,58.21
2022-09-06T23:03:36.405Z,57.98
2022-09-06T23:06:04.692Z,57.92
2022-09-06T23:08:32.796Z,58.19
2022-09-06T23:11:05.846Z,57.84
2022-09-06T23:13:33.805Z,58.05
2022-09-06T23:16:04.669Z,58.29
2022-09-06T23:18:32.783Z,58.18
2022-09-06T23:21:05.212Z,58.18
2022-09-06T23:23:33.385Z,57.96
2022-09-06T23:26:07.094Z,58.27
2022-09-06T23:28:35.739Z,57.89
2022-09-06T23:31:04.864Z,57.99
2022-09-06T23:33:35.050Z,58.13
2022-09-06T23:36:03.698Z,58.22
2022-09-06T23:38:33.093Z,58.26
2022-09-06T23:41:01.170Z,58.33
2022-09-06T23:43:30.998Z,58.24
2022-09-06T23:45:59.410Z,58.59
2022-09-06T23:48:27.519Z,58.38
2022-09-06T23:50:55.339Z,58.24
2022-09-06T23:53:23.388Z,58.39
2022-09-06T23:55:51.621Z,58.31
2022-09-06T23:58:19.517Z,58.25
